createdAt,value
2019-05-07T00:01:17.319Z,100207.58
2019-05-07T00:03:46.504Z,100214.57
2019-05-07T00:06:15.619Z,100214.55
2019-05-07T00:08:45.150Z,100211.96
2019-05-07T00:11:14.357Z,100211.95
2019-05-07T00:13:44.452Z,100208.45
2019-05-07T00:16:13.724Z,100206.70
2019-05-07T00:18:43.103Z,100207.14
2019-05-07T00:21:12.671Z,100205.41
2019-05-07T00:23:43.286Z,100207.57
2019-05-07T00:26:13.335Z,100201.91
2019-05-07T00:28:43.410Z,100201.05
2019-05-07T00:31:12.573Z,100201.91
2019-05-07T00:33:43.296Z,100203.22
2019-05-07T00:36:33.777Z,100204.09
2019-05-07T00:39:14.890Z,100201.48
2019-05-07T00:41:52.106Z,100193.63
2019-05-07T00:44:22.109Z,100206.70
2019-05-07T00:46:52.557Z,100208.89
2019-05-07T00:49:23.446Z,100207.57
2019-05-07T00:51:52.557Z,100202.80
2019-05-07T00:54:23.030Z,100205.84
2019-05-07T00:56:52.284Z,100204.98
2019-05-07T00:59:22.532Z,100197.55
2019-05-07T01:01:52.805Z,100195.81
2019-05-07T01:04:22.889Z,100192.75
2019-05-07T01:06:53.233Z,100189.72
2019-05-07T01:09:22.998Z,100196.69
2019-05-07T01:11:52.522Z,100199.28
2019-05-07T01:14:22.858Z,100191.45
2019-05-07T01:16:52.896Z,100193.63
2019-05-07T01:19:22.144Z,100189.70
2019-05-07T01:21:52.524Z,100192.75
2019-05-07T01:24:23.318Z,100196.23
2019-05-07T01:26:53.061Z,100184.90
2019-05-07T01:29:22.675Z,100190.14
2019-05-07T01:32:00.295Z,100187.53
2019-05-07T01:34:54.311Z,100184.03
2019-05-07T01:37:23.280Z,100190.13
2019-05-07T01:39:53.047Z,100191.01
2019-05-07T01:42:22.319Z,100198.00
2019-05-07T01:44:52.848Z,100189.28
2019-05-07T01:47:23.732Z,100195.38
2019-05-07T01:49:55.198Z,100189.27
2019-05-07T01:52:23.749Z,100186.22
2019-05-07T01:54:52.856Z,100191.02
2019-05-07T01:57:23.175Z,100193.19
2019-05-07T01:59:52.873Z,100183.17
2019-05-07T02:02:32.114Z,100187.09
2019-05-07T02:05:20.122Z,100186.66
2019-05-07T02:07:54.231Z,100184.91
2019-05-07T02:10:31.940Z,100180.98
2019-05-07T02:13:02.312Z,100180.55
2019-05-07T02:15:32.277Z,100184.45
2019-05-07T02:18:01.965Z,100181.84
2019-05-07T02:20:32.124Z,100184.48
2019-05-07T02:23:02.786Z,100185.77
2019-05-07T02:25:32.713Z,100184.03
2019-05-07T02:28:02.312Z,100184.45
2019-05-07T02:30:34.540Z,100177.48
2019-05-07T02:33:03.802Z,100183.59
2019-05-07T02:35:35.879Z,100180.97
2019-05-07T02:38:17.763Z,100177.92
2019-05-07T02:40:54.038Z,100172.64
2019-05-07T02:43:23.046Z,100171.36
2019-05-07T02:46:17.494Z,99947.30
2019-05-07T02:48:34.586Z,100173.55
2019-05-07T02:51:09.273Z,100179.18
2019-05-07T02:54:03.344Z,100175.69
2019-05-07T02:56:33.340Z,100180.05
2019-05-07T02:59:04.048Z,100173.95
2019-05-07T03:01:33.618Z,100181.78
2019-05-07T03:04:03.748Z,100177.00
2019-05-07T03:06:33.981Z,100178.75
2019-05-07T03:09:03.545Z,100179.16
2019-05-07T03:11:34.045Z,100177.00
2019-05-07T03:14:03.467Z,100181.33
2019-05-07T03:16:43.755Z,100175.67
2019-05-07T03:19:04.197Z,100180.02
2019-05-07T03:21:53.703Z,100175.68
2019-05-07T03:24:44.239Z,100178.28
2019-05-07T03:27:14.344Z,100175.64
2019-05-07T03:29:47.262Z,100179.55
2019-05-07T03:32:38.115Z,100179.11
2019-05-07T03:35:29.190Z,100184.78
2019-05-07T03:37:58.488Z,100183.02
2019-05-07T03:40:28.486Z,100177.78
2019-05-07T03:43:01.600Z,100178.62
2019-05-07T03:45:46.107Z,100176.44
2019-05-07T03:48:17.240Z,100181.66
2019-05-07T03:50:46.306Z,100179.00
2019-05-07T03:53:15.422Z,100178.55
2019-05-07T03:55:44.986Z,100109.58
2019-05-07T03:58:14.845Z,100179.37
2019-05-07T04:00:44.731Z,100181.11
2019-05-07T04:03:18.761Z,100177.62
2019-05-07T04:05:44.663Z,100178.02
2019-05-07T04:08:13.792Z,100181.50
2019-05-07T04:10:44.310Z,100174.53
2019-05-07T04:13:13.883Z,100176.27
2019-05-07T04:15:44.010Z,100178.42
2019-05-07T04:18:13.613Z,100182.80
2019-05-07T04:20:43.455Z,100179.31
2019-05-07T04:23:13.862Z,100174.50
2019-05-07T04:25:53.034Z,100174.92
2019-05-07T04:28:34.868Z,100179.27
2019-05-07T04:31:04.211Z,100173.20
2019-05-07T04:33:43.667Z,100171.02
2019-05-07T04:36:19.087Z,100169.73
2019-05-07T04:38:48.089Z,100173.66
2019-05-07T04:41:17.122Z,100176.28
2019-05-07T04:43:46.329Z,100171.53
2019-05-07T04:46:15.346Z,100177.20
2019-05-07T04:48:44.492Z,100174.19
2019-05-07T04:51:15.846Z,100167.67
2019-05-07T04:53:44.933Z,100172.92
2019-05-07T04:56:14.188Z,100170.31
2019-05-07T04:58:43.622Z,100171.21
2019-05-07T05:01:14.579Z,100160.33
2019-05-07T05:03:43.908Z,100169.48
2019-05-07T05:06:13.818Z,100169.50
2019-05-07T05:08:43.734Z,100173.45
2019-05-07T05:11:13.095Z,100165.66
2019-05-07T05:13:44.474Z,100160.45
2019-05-07T05:16:26.605Z,100166.55
2019-05-07T05:18:55.795Z,100162.66
2019-05-07T05:21:43.863Z,100167.03
2019-05-07T05:24:18.302Z,100156.99
2019-05-07T05:26:47.355Z,100159.61
2019-05-07T05:29:16.721Z,100162.64
2019-05-07T05:31:45.819Z,100160.88
2019-05-07T05:34:15.034Z,100166.08
2019-05-07T05:36:46.957Z,100168.63
2019-05-07T05:39:16.049Z,100150.69
2019-05-07T05:41:46.811Z,100164.09
2019-05-07T05:44:22.798Z,100166.61
2019-05-07T05:46:52.582Z,100167.34
2019-05-07T05:49:22.945Z,100167.61
2019-05-07T05:51:58.968Z,100168.34
2019-05-07T05:54:35.945Z,100168.64
2019-05-07T05:57:24.251Z,100172.95
2019-05-07T06:00:15.341Z,100168.03
2019-05-07T06:02:56.439Z,100164.73
2019-05-07T06:05:47.478Z,100161.68
2019-05-07T06:08:34.105Z,100163.58
2019-05-07T06:11:21.871Z,100162.00
2019-05-07T06:14:13.914Z,100156.69
2019-05-07T06:16:52.634Z,100154.20
2019-05-07T06:19:32.695Z,100160.82
2019-05-07T06:22:17.225Z,100159.23
2019-05-07T06:24:52.131Z,100154.00
2019-05-07T06:27:22.916Z,100161.30
2019-05-07T06:29:52.441Z,100160.08
2019-05-07T06:32:22.960Z,100158.00
2019-05-07T06:34:52.417Z,100160.45
2019-05-07T06:37:22.819Z,100158.87
2019-05-07T06:40:03.093Z,100157.93
2019-05-07T06:42:57.281Z,100162.61
2019-05-07T06:45:29.080Z,100156.64
2019-05-07T06:47:58.164Z,100164.11
2019-05-07T06:50:27.344Z,100160.19
2019-05-07T06:52:56.403Z,100163.88
2019-05-07T06:55:25.543Z,100175.01
2019-05-07T06:57:54.669Z,100166.48
2019-05-07T07:00:49.304Z,100160.02
2019-05-07T07:03:27.802Z,100163.05
2019-05-07T07:06:15.817Z,100163.27
2019-05-07T07:08:52.709Z,100161.01
2019-05-07T07:11:31.761Z,100157.59
2019-05-07T07:14:02.494Z,100148.86
2019-05-07T07:16:32.604Z,100154.02
2019-05-07T07:19:03.340Z,100149.14
2019-05-07T07:21:32.830Z,100148.22
2019-05-07T07:24:03.016Z,100151.34
2019-05-07T07:26:33.983Z,100143.80
2019-05-07T07:29:03.097Z,100142.04
2019-05-07T07:31:45.913Z,100137.20
2019-05-07T07:34:14.992Z,100135.16
2019-05-07T07:37:08.407Z,100131.67
2019-05-07T07:39:34.061Z,100133.31
2019-05-07T07:42:04.421Z,100131.92
2019-05-07T07:44:33.619Z,100134.09
2019-05-07T07:47:02.859Z,100129.16
2019-05-07T07:49:32.949Z,100135.92
2019-05-07T07:52:03.165Z,100119.55
2019-05-07T07:54:32.507Z,100129.03
2019-05-07T07:57:18.457Z,100122.69
2019-05-07T08:00:09.220Z,100123.89
2019-05-07T08:02:43.998Z,100118.45
2019-05-07T08:05:13.128Z,100124.15
2019-05-07T08:07:42.696Z,100121.55
2019-05-07T08:10:12.891Z,100119.03
2019-05-07T08:12:42.548Z,100115.66
2019-05-07T08:15:18.115Z,100115.90
2019-05-07T08:17:42.492Z,100120.11
2019-05-07T08:20:12.809Z,100116.92
2019-05-07T08:22:42.446Z,100113.07
2019-05-07T08:25:12.508Z,100117.22
2019-05-07T08:27:42.155Z,100108.97
2019-05-07T08:30:13.040Z,100112.61
2019-05-07T08:32:56.605Z,100113.12
2019-05-07T08:35:36.261Z,100113.03
2019-05-07T08:38:05.399Z,99858.80
2019-05-07T08:40:34.439Z,100110.52
2019-05-07T08:43:03.555Z,100117.16
2019-05-07T08:46:11.873Z,100113.81
2019-05-07T08:48:50.483Z,100107.75
2019-05-07T08:51:22.247Z,100114.89
2019-05-07T08:54:05.490Z,100110.92
2019-05-07T08:56:35.441Z,100110.84
2019-05-07T08:59:04.671Z,100109.30
2019-05-07T09:01:34.029Z,100107.69
2019-05-07T09:04:03.127Z,100103.31
2019-05-07T09:06:35.058Z,100103.05
2019-05-07T09:09:09.875Z,100100.59
2019-05-07T09:11:38.958Z,100097.18
2019-05-07T09:14:08.026Z,100100.42
2019-05-07T09:16:37.119Z,100093.91
2019-05-07T09:19:06.651Z,100098.92
2019-05-07T09:21:36.838Z,100096.50
2019-05-07T09:24:06.404Z,100088.22
2019-05-07T09:26:44.355Z,100085.47
2019-05-07T09:29:38.536Z,100078.14
2019-05-07T09:32:28.420Z,100077.31
2019-05-07T09:34:57.824Z,100075.04
2019-05-07T09:37:28.443Z,100074.31
2019-05-07T09:39:57.599Z,100070.87
2019-05-07T09:42:26.670Z,100064.00
2019-05-07T09:44:55.765Z,100066.92
2019-05-07T09:47:24.796Z,100068.20
2019-05-07T09:50:03.886Z,100066.72
2019-05-07T09:52:24.751Z,100063.75
2019-05-07T09:54:53.858Z,100066.97
2019-05-07T09:57:30.478Z,100065.84
2019-05-07T09:59:54.171Z,100064.28
2019-05-07T10:02:23.223Z,100068.31
2019-05-07T10:04:52.858Z,100065.98
2019-05-07T10:07:22.475Z,100066.00
2019-05-07T10:09:52.322Z,100062.38
2019-05-07T10:12:28.400Z,100059.98
2019-05-07T10:14:57.461Z,100057.80
2019-05-07T10:17:33.914Z,100062.88
2019-05-07T10:20:07.259Z,100057.29
2019-05-07T10:22:34.044Z,100056.09
2019-05-07T10:25:03.188Z,100055.79
2019-05-07T10:27:32.630Z,100051.58
2019-05-07T10:30:02.352Z,100058.81
2019-05-07T10:32:32.305Z,100062.19
2019-05-07T10:35:02.266Z,100063.55
2019-05-07T10:37:31.975Z,100061.71
2019-05-07T10:40:03.045Z,100064.14
2019-05-07T10:42:32.508Z,100065.28
2019-05-07T10:45:16.137Z,100066.41
2019-05-07T10:47:53.220Z,100066.34
2019-05-07T10:50:38.027Z,100043.98
2019-05-07T10:52:57.802Z,100055.28
2019-05-07T10:55:26.929Z,100059.47
2019-05-07T10:57:56.566Z,100057.09
2019-05-07T11:00:26.517Z,100048.92
2019-05-07T11:02:55.637Z,100047.27
2019-05-07T11:05:24.855Z,100041.50
2019-05-07T11:07:54.044Z,100043.09
2019-05-07T11:10:23.050Z,100043.84
2019-05-07T11:12:52.186Z,100038.77
2019-05-07T11:15:22.020Z,100033.22
2019-05-07T11:18:13.289Z,100038.80
2019-05-07T11:20:49.277Z,100035.28
2019-05-07T11:23:13.260Z,100030.77
2019-05-07T11:25:42.356Z,100027.05
2019-05-07T11:28:12.338Z,100026.39
2019-05-07T11:30:42.565Z,100022.42
2019-05-07T11:33:12.856Z,100019.63
2019-05-07T11:35:42.451Z,100013.44
2019-05-07T11:38:20.508Z,100013.41
2019-05-07T11:40:42.948Z,100006.29
2019-05-07T11:43:29.798Z,100012.89
2019-05-07T11:46:22.221Z,100003.63
2019-05-07T11:49:00.307Z,100000.66
2019-05-07T11:51:37.723Z,99998.62
2019-05-07T11:54:12.712Z,99995.82
2019-05-07T11:56:42.461Z,99737.62
2019-05-07T11:59:13.352Z,99989.77
2019-05-07T12:01:48.024Z,99988.84
2019-05-07T12:04:22.176Z,99991.04
2019-05-07T12:06:52.061Z,99982.63
2019-05-07T12:09:21.840Z,99985.78
2019-05-07T12:11:52.043Z,99889.86
2019-05-07T12:14:30.563Z,99977.80
2019-05-07T12:16:52.983Z,99980.31
2019-05-07T12:19:24.332Z,99971.69
2019-05-07T12:21:53.634Z,99972.48
2019-05-07T12:24:22.729Z,99966.27
2019-05-07T12:26:52.334Z,99964.94
2019-05-07T12:29:22.059Z,99968.44
2019-05-07T12:32:25.503Z,99962.63
2019-05-07T12:34:58.027Z,99955.91
2019-05-07T12:37:27.173Z,99955.67
2019-05-07T12:39:56.258Z,99949.25
2019-05-07T12:46:05.325Z,99942.84
2019-05-07T12:48:34.417Z,99935.03
2019-05-07T12:51:03.511Z,99928.08
2019-05-07T12:53:43.607Z,99929.57
2019-05-07T12:56:12.678Z,99923.24
2019-05-07T12:58:41.784Z,99925.81
2019-05-07T13:01:32.923Z,99924.83
2019-05-07T13:04:08.426Z,99931.42
2019-05-07T13:06:43.244Z,99926.70
2019-05-07T13:09:12.664Z,99930.73
2019-05-07T13:11:42.505Z,99926.41
2019-05-07T13:14:12.584Z,99918.27
2019-05-07T13:16:41.761Z,99916.26
2019-05-07T13:19:13.206Z,99917.90
2019-05-07T13:21:49.091Z,99906.88
2019-05-07T13:24:14.982Z,99919.08
2019-05-07T13:26:44.303Z,99914.80
2019-05-07T13:29:13.367Z,99909.08
2019-05-07T13:31:42.458Z,99909.97
2019-05-07T13:34:12.231Z,99926.63
2019-05-07T13:36:45.121Z,99912.91
2019-05-07T13:42:31.990Z,99911.42
2019-05-07T13:45:09.447Z,99901.98
2019-05-07T13:47:40.802Z,99900.63
2019-05-07T13:50:11.933Z,99895.42
2019-05-07T13:52:43.135Z,99911.77
2019-05-07T14:00:34.284Z,99886.16
2019-05-07T14:03:03.439Z,99889.13
2019-05-07T14:05:32.544Z,99876.92
2019-05-07T14:08:04.450Z,99880.70
2019-05-07T14:10:33.858Z,99874.69
2019-05-07T14:13:12.529Z,99868.59
2019-05-07T14:15:35.002Z,99867.20
2019-05-07T14:18:04.175Z,99865.52
2019-05-07T14:20:33.224Z,99870.69
2019-05-07T14:23:02.248Z,99861.33
2019-05-07T14:25:32.563Z,99857.77
2019-05-07T14:28:02.269Z,99851.66
2019-05-07T14:30:32.785Z,99863.75
2019-05-07T14:33:14.394Z,99851.56
2019-05-07T14:35:55.314Z,99851.92
2019-05-07T14:38:32.089Z,99846.58
2019-05-07T14:41:02.661Z,99841.15
2019-05-07T14:43:43.676Z,99839.39
2019-05-07T14:46:12.769Z,99839.11
2019-05-07T14:48:43.780Z,99831.44
2019-05-07T14:51:12.777Z,99828.20
2019-05-07T14:53:42.843Z,99820.62
2019-05-07T14:56:14.274Z,99818.67
2019-05-07T14:58:43.080Z,99826.27
2019-05-07T15:01:12.179Z,99744.08
2019-05-07T15:03:42.335Z,99816.55
2019-05-07T15:06:12.606Z,99809.92
2019-05-07T15:08:42.872Z,99813.10
2019-05-07T15:13:40.065Z,99813.19
2019-05-07T15:16:09.163Z,99804.33
2019-05-07T15:18:49.160Z,99811.88
2019-05-07T15:21:18.238Z,99808.78
2019-05-07T15:23:47.719Z,99812.80
2019-05-07T15:26:16.804Z,99802.02
2019-05-07T15:28:48.533Z,99807.01
2019-05-07T15:31:23.351Z,99813.23
2019-05-07T15:33:52.404Z,99791.29
2019-05-07T15:36:21.495Z,99793.66
2019-05-07T15:38:52.160Z,99782.76
2019-05-07T15:41:22.822Z,99780.30
2019-05-07T15:43:52.213Z,99778.72
2019-05-07T15:46:22.712Z,99774.58
2019-05-07T15:48:53.927Z,99778.63
2019-05-07T15:51:23.005Z,99773.88
2019-05-07T15:53:54.562Z,99776.58
2019-05-07T15:56:23.729Z,99770.48
2019-05-07T15:58:52.852Z,99756.89
2019-05-07T16:01:22.279Z,99756.80
2019-05-07T16:03:54.712Z,99755.69
2019-05-07T16:06:22.384Z,99753.39
2019-05-07T16:08:57.946Z,99749.81
2019-05-07T16:11:26.986Z,99743.86
2019-05-07T16:14:14.673Z,99737.17
2019-05-07T16:16:46.595Z,99746.77
2019-05-07T16:19:29.042Z,99739.05
2019-05-07T16:22:04.320Z,99734.02
2019-05-07T16:24:33.465Z,99734.98
2019-05-07T16:27:05.141Z,99729.65
2019-05-07T16:29:35.666Z,99734.63
2019-05-07T16:32:04.093Z,99732.16
2019-05-07T16:34:33.153Z,99731.89
2019-05-07T16:37:06.807Z,99726.19
2019-05-07T16:39:32.974Z,99731.19
2019-05-07T16:42:02.008Z,99728.91
2019-05-07T16:44:33.115Z,99726.77
2019-05-07T16:47:02.787Z,99723.40
2019-05-07T16:49:32.662Z,99715.54
2019-05-07T16:52:02.810Z,99713.09
2019-05-07T16:54:35.124Z,99712.92
2019-05-07T16:57:22.176Z,99712.86
2019-05-07T16:59:52.209Z,99711.33
2019-05-07T17:02:25.780Z,99705.91
2019-05-07T17:05:12.734Z,99705.91
2019-05-07T17:07:48.489Z,99704.33
2019-05-07T17:10:18.467Z,99704.15
2019-05-07T17:12:47.787Z,99702.83
2019-05-07T17:15:17.093Z,99694.47
2019-05-07T17:17:46.277Z,99699.53
2019-05-07T17:20:15.450Z,99697.14
2019-05-07T17:22:44.479Z,99698.61
2019-05-07T17:25:33.276Z,99696.86
2019-05-07T17:28:02.871Z,99694.98
2019-05-07T17:30:32.115Z,99706.82
2019-05-07T17:33:01.929Z,99695.48
2019-05-07T17:35:34.067Z,99694.98
2019-05-07T17:38:08.977Z,99702.77
2019-05-07T17:40:32.462Z,99693.09
2019-05-07T17:43:03.194Z,99696.64
2019-05-07T17:45:33.048Z,99699.72
2019-05-07T17:48:03.153Z,99691.39
2019-05-07T17:50:38.596Z,99691.94
2019-05-07T17:53:07.668Z,99684.50
2019-05-07T17:55:36.678Z,99691.13
2019-05-07T17:58:05.730Z,99682.84
2019-05-07T18:00:34.724Z,99684.56
2019-05-07T18:03:15.441Z,99681.63
2019-05-07T18:05:44.498Z,99680.06
2019-05-07T18:08:13.512Z,99682.02
2019-05-07T18:10:42.696Z,99679.02
2019-05-07T18:13:12.029Z,99684.28
2019-05-07T18:15:42.768Z,99681.72
2019-05-07T18:18:12.757Z,99676.06
2019-05-07T18:20:42.303Z,99677.42
2019-05-07T18:23:16.718Z,99677.14
2019-05-07T18:25:42.875Z,99674.09
2019-05-07T18:28:12.516Z,99565.89
2019-05-07T18:30:41.613Z,99672.25
2019-05-07T18:33:28.382Z,99665.76
2019-05-07T18:35:57.520Z,99671.03
2019-05-07T18:38:26.626Z,99669.40
2019-05-07T18:40:55.665Z,99672.87
2019-05-07T18:43:24.762Z,99673.53
2019-05-07T18:45:53.801Z,99670.15
2019-05-07T18:48:22.916Z,99663.74
2019-05-07T18:50:52.280Z,99666.88
2019-05-07T18:53:22.685Z,99663.95
2019-05-07T18:55:51.877Z,99658.43
2019-05-07T18:58:22.448Z,99663.91
2019-05-07T19:00:55.065Z,99660.60
2019-05-07T19:03:25.443Z,99662.62
2019-05-07T19:05:54.770Z,99673.84
2019-05-07T19:08:23.912Z,99651.25
2019-05-07T19:10:54.797Z,99651.50
2019-05-07T19:13:23.848Z,99649.44
2019-05-07T19:15:56.373Z,99653.11
2019-05-07T19:18:23.915Z,99655.02
2019-05-07T19:20:54.121Z,99655.23
2019-05-07T19:23:23.308Z,99657.57
2019-05-07T19:25:55.148Z,99660.89
2019-05-07T19:28:24.232Z,99661.97
2019-05-07T19:30:53.357Z,99665.59
2019-05-07T19:33:26.808Z,99668.45
2019-05-07T19:35:53.603Z,99659.08
2019-05-07T19:38:22.697Z,99667.15
2019-05-07T19:40:52.812Z,99665.59
2019-05-07T19:43:22.108Z,99667.41
2019-05-07T19:45:52.366Z,99667.52
2019-05-07T19:48:23.137Z,99661.09
2019-05-07T19:50:52.850Z,99662.47
2019-05-07T19:53:23.521Z,99663.45
2019-05-07T19:56:09.151Z,99660.91
2019-05-07T19:58:38.245Z,99657.47
2019-05-07T20:01:08.671Z,99650.58
2019-05-07T20:03:37.783Z,99656.83
2019-05-07T20:06:06.847Z,99649.03
2019-05-07T20:08:35.996Z,99650.87
2019-05-07T20:11:17.075Z,99649.59
2019-05-07T20:13:46.142Z,99653.65
2019-05-07T20:16:18.856Z,99652.78
2019-05-07T20:18:48.131Z,99654.17
2019-05-07T20:21:18.038Z,99651.67
2019-05-07T20:23:47.160Z,99653.80
2019-05-07T20:26:16.336Z,99647.74
2019-05-07T20:28:45.513Z,99640.69
2019-05-07T20:31:14.757Z,99637.23
2019-05-07T20:33:43.939Z,99634.63
2019-05-07T20:36:13.645Z,99631.16
2019-05-07T20:38:42.846Z,99628.55
2019-05-07T20:41:12.909Z,99615.91
2019-05-07T20:43:42.976Z,99617.17
2019-05-07T20:46:12.178Z,99615.84
2019-05-07T20:48:42.335Z,99605.78
2019-05-07T20:51:12.408Z,99612.79
2019-05-07T20:53:59.430Z,99608.38
2019-05-07T20:56:32.261Z,99593.06
2019-05-07T20:59:03.000Z,99597.95
2019-05-07T21:01:32.953Z,99586.16
2019-05-07T21:04:02.300Z,99584.78
2019-05-07T21:06:32.305Z,99579.05
2019-05-07T21:09:01.521Z,99575.11
2019-05-07T21:11:32.373Z,99577.33
2019-05-07T21:14:03.250Z,99572.13
2019-05-07T21:16:32.963Z,99563.86
2019-05-07T21:19:02.348Z,99561.73
2019-05-07T21:21:32.694Z,99562.70
2019-05-07T21:24:02.221Z,99554.07
2019-05-07T21:26:32.787Z,99563.77
2019-05-07T21:29:02.965Z,99554.72
2019-05-07T21:31:32.474Z,99559.14
2019-05-07T21:34:03.277Z,99559.64
2019-05-07T21:36:32.615Z,99553.63
2019-05-07T21:39:02.371Z,99556.33
2019-05-07T21:41:33.450Z,99557.23
2019-05-07T21:44:02.465Z,99562.50
2019-05-07T21:46:32.941Z,99556.44
2019-05-07T21:49:02.731Z,99551.66
2019-05-07T21:51:32.052Z,99542.06
2019-05-07T21:54:23.675Z,99544.64
2019-05-07T21:57:12.648Z,99538.09
2019-05-07T21:59:43.186Z,99532.84
2019-05-07T22:02:22.779Z,99532.06
2019-05-07T22:04:52.916Z,99523.74
2019-05-07T22:07:22.817Z,99528.96
2019-05-07T22:09:52.352Z,99521.52
2019-05-07T22:12:22.909Z,99524.95
2019-05-07T22:14:52.000Z,99520.56
2019-05-07T22:17:21.919Z,99527.97
2019-05-07T22:19:52.497Z,99521.41
2019-05-07T22:22:24.021Z,99518.78
2019-05-07T22:24:53.131Z,99520.03
2019-05-07T22:27:22.273Z,99510.84
2019-05-07T22:29:52.737Z,99509.95
2019-05-07T22:32:38.319Z,99509.01
2019-05-07T22:35:19.860Z,99499.75
2019-05-07T22:37:48.960Z,99494.90
2019-05-07T22:40:18.092Z,99483.50
2019-05-07T22:42:47.122Z,99481.70
2019-05-07T22:45:16.138Z,99479.00
2019-05-07T22:47:45.124Z,99473.71
2019-05-07T22:50:14.326Z,99480.27
2019-05-07T22:52:43.463Z,99475.02
2019-05-07T22:55:15.538Z,99469.36
2019-05-07T22:58:03.622Z,99455.41
2019-05-07T23:00:36.637Z,99451.47
2019-05-07T23:03:05.644Z,99452.37
2019-05-07T23:05:34.660Z,99451.54
2019-05-07T23:08:03.613Z,99448.92
2019-05-07T23:10:33.298Z,99438.86
2019-05-07T23:13:02.518Z,99434.49
2019-05-07T23:15:32.203Z,99431.88
2019-05-07T23:18:04.132Z,99418.78
2019-05-07T23:20:32.169Z,99422.73
2019-05-07T23:23:01.960Z,99417.97
2019-05-07T23:25:32.237Z,99410.12
2019-05-07T23:28:04.948Z,99412.78
2019-05-07T23:30:33.103Z,99409.28
2019-05-07T23:33:02.545Z,99402.80
2019-05-07T23:35:32.830Z,99400.17
2019-05-07T23:38:02.565Z,99393.23
2019-05-07T23:41:01.984Z,99391.09
2019-05-07T23:43:30.465Z,99387.19
2019-05-07T23:45:59.495Z,99379.05
2019-05-07T23:48:28.518Z,99375.97
2019-05-07T23:50:57.619Z,99368.13
2019-05-07T23:53:26.610Z,99362.01
2019-05-07T23:55:55.623Z,99357.62
2019-05-07T23:58:24.596Z,99358.94
